createdAt,value
2023-04-19T00:00:08.282Z,4.53
2023-04-19T00:02:36.159Z,5.13
2023-04-19T00:05:02.974Z,4.23
2023-04-19T00:07:29.473Z,4.30
2023-04-19T00:09:55.874Z,5.47
2023-04-19T00:12:22.257Z,5.40
2023-04-19T00:14:48.738Z,4.03
2023-04-19T00:17:15.391Z,6.17
2023-04-19T00:19:41.948Z,4.63
2023-04-19T00:22:08.478Z,3.90
2023-04-19T00:24:34.844Z,4.37
2023-04-19T00:27:02.312Z,4.77
2023-04-19T00:29:28.823Z,5.23
2023-04-19T00:31:55.277Z,4.80
2023-04-19T00:34:21.676Z,4.63
2023-04-19T00:36:48.118Z,4.20
2023-04-19T00:39:15.518Z,4.40
2023-04-19T00:41:41.905Z,4.57
2023-04-19T00:44:08.305Z,5.93
2023-04-19T00:46:36.408Z,4.37
2023-04-19T00:49:03.081Z,4.83
2023-04-19T00:51:29.801Z,4.97
2023-04-19T00:53:56.843Z,4.57
2023-04-19T00:56:25.052Z,5.20
2023-04-19T00:58:51.561Z,3.90
2023-04-19T01:01:18.538Z,4.00
2023-04-19T01:03:47.216Z,4.40
2023-04-19T01:06:14.668Z,4.60
2023-04-19T01:08:41.074Z,4.63
2023-04-19T01:11:10.370Z,4.00
2023-04-19T01:13:36.960Z,8.73
2023-04-19T01:16:03.560Z,6.40
2023-04-19T01:18:35.638Z,5.20
2023-04-19T01:21:02.090Z,4.80
2023-04-19T01:23:28.533Z,5.00
2023-04-19T01:25:54.979Z,7.43
2023-04-19T01:28:21.403Z,5.70
2023-04-19T01:30:50.888Z,5.93
2023-04-19T01:33:17.418Z,5.30
2023-04-19T01:35:43.813Z,6.83
2023-04-19T01:38:10.244Z,5.83
2023-04-19T01:40:36.639Z,4.73
2023-04-19T01:43:03.049Z,5.20
2023-04-19T01:45:29.499Z,4.50
2023-04-19T01:47:56.607Z,4.23
2023-04-19T01:50:23.240Z,8.20
2023-04-19T01:52:49.666Z,5.20
2023-04-19T01:55:16.187Z,5.70
2023-04-19T01:57:42.577Z,5.07
2023-04-19T02:00:10.511Z,4.70
2023-04-19T02:02:38.476Z,6.00
2023-04-19T02:05:06.537Z,6.93
2023-04-19T02:07:32.935Z,4.77
2023-04-19T02:10:00.195Z,5.83
2023-04-19T02:12:28.876Z,4.97
2023-04-19T02:14:59.433Z,6.00
2023-04-19T02:17:26.530Z,6.73
2023-04-19T02:19:53.034Z,5.43
2023-04-19T02:22:19.794Z,5.00
2023-04-19T02:24:47.596Z,5.57
2023-04-19T02:27:14.095Z,6.47
2023-04-19T02:29:41.194Z,5.50
2023-04-19T02:32:07.795Z,7.40
2023-04-19T02:34:34.670Z,6.30
2023-04-19T02:37:01.825Z,5.20
2023-04-19T02:39:28.204Z,5.67
2023-04-19T02:41:56.102Z,7.73
2023-04-19T02:44:22.643Z,8.57
2023-04-19T02:46:52.494Z,7.10
2023-04-19T02:49:20.240Z,6.10
2023-04-19T02:51:47.730Z,8.77
2023-04-19T02:54:14.588Z,5.40
2023-04-19T02:56:41.284Z,6.93
2023-04-19T02:59:07.712Z,7.67
2023-04-19T03:01:34.107Z,6.63
2023-04-19T03:04:00.728Z,6.77
2023-04-19T03:06:27.303Z,7.07
2023-04-19T03:08:53.699Z,8.80
2023-04-19T03:11:21.084Z,6.10
2023-04-19T03:13:47.508Z,8.37
2023-04-19T03:16:14.001Z,7.10
2023-04-19T03:18:40.642Z,6.70
2023-04-19T03:21:09.448Z,7.50
2023-04-19T03:23:35.868Z,7.47
2023-04-19T03:26:02.291Z,8.47
2023-04-19T03:28:28.714Z,8.67
2023-04-19T03:30:55.304Z,7.17
2023-04-19T03:33:21.779Z,8.20
2023-04-19T03:35:48.207Z,7.73
2023-04-19T03:38:14.640Z,8.27
2023-04-19T03:40:41.089Z,8.20
2023-04-19T03:43:07.534Z,9.80
2023-04-19T03:45:34.117Z,10.43
2023-04-19T03:48:02.752Z,8.63
2023-04-19T03:50:29.592Z,8.63
2023-04-19T03:52:56.035Z,9.57
2023-04-19T03:55:22.515Z,8.50
2023-04-19T03:57:48.955Z,8.33
2023-04-19T04:00:16.589Z,7.67
2023-04-19T04:02:43.102Z,14.83
2023-04-19T04:05:09.901Z,8.70
2023-04-19T04:07:36.484Z,12.87
2023-04-19T04:10:03.034Z,10.47
2023-04-19T04:12:29.504Z,9.20
2023-04-19T04:14:55.994Z,8.27
2023-04-19T04:17:24.176Z,9.37
2023-04-19T04:19:50.666Z,9.20
2023-04-19T04:22:17.229Z,8.43
2023-04-19T04:24:44.076Z,10.17
2023-04-19T04:27:11.107Z,12.60
2023-04-19T04:29:38.306Z,14.93
2023-04-19T04:32:08.622Z,13.17
2023-04-19T04:34:36.648Z,13.50
2023-04-19T04:37:04.010Z,15.70
2023-04-19T04:39:30.585Z,14.30
2023-04-19T04:41:59.636Z,13.13
2023-04-19T04:44:26.252Z,18.30
2023-04-19T04:46:52.767Z,16.90
2023-04-19T04:49:19.243Z,13.90
2023-04-19T04:51:45.815Z,13.40
2023-04-19T04:54:12.262Z,12.80
2023-04-19T04:56:38.693Z,10.07
2023-04-19T04:59:05.673Z,8.77
2023-04-19T05:01:32.145Z,11.57
2023-04-19T05:03:58.852Z,11.97
2023-04-19T05:06:26.512Z,12.37
2023-04-19T05:08:53.016Z,10.07
2023-04-19T05:11:20.373Z,10.00
2023-04-19T05:13:46.804Z,10.00
2023-04-19T05:16:13.261Z,9.67
2023-04-19T05:18:39.706Z,8.90
2023-04-19T05:21:08.188Z,10.00
2023-04-19T05:23:34.700Z,8.47
2023-04-19T05:26:01.111Z,11.40
2023-04-19T05:28:27.565Z,10.70
2023-04-19T05:30:54.093Z,11.43
2023-04-19T05:33:20.635Z,9.83
2023-04-19T05:35:47.080Z,9.73
2023-04-19T05:38:13.558Z,9.53
2023-04-19T05:40:40.264Z,11.47
2023-04-19T05:43:06.768Z,12.37
2023-04-19T05:45:33.151Z,11.43
2023-04-19T05:47:59.590Z,11.57
2023-04-19T05:50:26.056Z,9.97
2023-04-19T05:52:52.516Z,12.40
2023-04-19T05:55:18.995Z,12.00
2023-04-19T05:57:45.415Z,12.37
2023-04-19T06:00:12.576Z,11.83
2023-04-19T06:02:39.122Z,23.30
2023-04-19T06:05:09.918Z,10.10
2023-04-19T06:07:46.903Z,13.83
2023-04-19T06:10:20.665Z,12.70
2023-04-19T06:12:47.099Z,15.37
2023-04-19T06:15:13.568Z,13.47
2023-04-19T06:17:40.052Z,13.53
2023-04-19T06:20:08.291Z,13.17
2023-04-19T06:22:34.752Z,13.30
2023-04-19T06:25:01.442Z,13.47
2023-04-19T06:27:27.893Z,12.77
2023-04-19T06:29:54.394Z,12.00
2023-04-19T06:32:20.804Z,11.80
2023-04-19T06:34:47.261Z,12.00
2023-04-19T06:37:13.679Z,13.80
2023-04-19T06:39:40.125Z,11.00
2023-04-19T06:42:07.005Z,10.70
2023-04-19T06:44:33.485Z,10.10
2023-04-19T06:46:59.906Z,14.83
2023-04-19T06:49:26.381Z,11.27
2023-04-19T06:51:53.418Z,10.60
2023-04-19T06:54:20.104Z,13.10
2023-04-19T06:56:48.555Z,12.47
2023-04-19T06:59:19.037Z,12.70
2023-04-19T07:01:46.308Z,14.30
2023-04-19T07:04:14.053Z,14.03
2023-04-19T07:06:40.693Z,13.43
2023-04-19T07:09:08.449Z,16.90
2023-04-19T07:11:34.980Z,14.43
2023-04-19T07:14:01.540Z,12.50
2023-04-19T07:16:28.803Z,15.00
2023-04-19T07:18:55.541Z,11.80
2023-04-19T07:21:22.006Z,11.93
2023-04-19T07:23:48.449Z,13.63
2023-04-19T07:26:15.041Z,13.13
2023-04-19T07:28:41.528Z,12.83
2023-04-19T07:31:08.013Z,11.70
2023-04-19T07:33:34.895Z,11.50
2023-04-19T07:36:01.635Z,10.70
2023-04-19T07:38:28.224Z,12.80
2023-04-19T07:40:54.669Z,12.17
2023-04-19T07:43:21.226Z,11.23
2023-04-19T07:45:47.661Z,12.37
2023-04-19T07:48:14.053Z,12.70
2023-04-19T07:50:40.475Z,13.40
2023-04-19T07:53:06.875Z,10.77
2023-04-19T07:55:33.400Z,11.13
2023-04-19T07:58:01.222Z,11.67
2023-04-19T08:00:29.822Z,12.47
2023-04-19T08:02:59.959Z,11.40
2023-04-19T08:05:27.353Z,11.50
2023-04-19T08:07:53.969Z,16.07
2023-04-19T08:10:22.199Z,13.20
2023-04-19T08:13:04.476Z,12.03
2023-04-19T08:18:04.993Z,23.73
2023-04-19T08:20:32.528Z,11.13
2023-04-19T08:23:04.598Z,13.37
2023-04-19T08:25:37.394Z,13.20
2023-04-19T08:28:04.778Z,11.90
2023-04-19T08:30:31.794Z,11.43
2023-04-19T08:32:58.344Z,12.00
2023-04-19T08:35:25.391Z,11.93
2023-04-19T08:37:51.892Z,9.87
2023-04-19T08:40:18.824Z,11.23
2023-04-19T08:42:45.317Z,11.33
2023-04-19T08:45:27.110Z,9.40
2023-04-19T08:48:01.365Z,9.70
2023-04-19T08:53:12.175Z,8.00
2023-04-19T08:56:03.350Z,11.03
2023-04-19T08:58:52.146Z,9.37
2023-04-19T09:01:33.171Z,8.13
2023-04-19T09:04:16.927Z,9.43
2023-04-19T09:06:49.010Z,7.90
2023-04-19T09:09:34.749Z,8.43
2023-04-19T09:12:17.655Z,8.00
2023-04-19T09:14:57.832Z,8.43
2023-04-19T09:17:26.807Z,8.60
2023-04-19T09:19:53.216Z,9.23
2023-04-19T09:22:19.732Z,8.17
2023-04-19T09:25:22.753Z,9.07
2023-04-19T09:27:36.263Z,8.20
2023-04-19T09:30:04.676Z,6.87
2023-04-19T09:32:46.772Z,7.43
2023-04-19T09:35:13.383Z,7.17
2023-04-19T09:38:01.735Z,8.63
2023-04-19T09:40:28.438Z,8.33
2023-04-19T09:48:07.097Z,6.50
2023-04-19T09:50:42.367Z,7.73
2023-04-19T09:53:18.292Z,8.37
2023-04-19T09:55:57.703Z,6.27
2023-04-19T09:58:34.343Z,7.20
2023-04-19T10:03:35.438Z,7.30
2023-04-19T10:06:14.124Z,6.67
2023-04-19T10:08:49.804Z,6.27
2023-04-19T10:11:17.447Z,6.37
2023-04-19T10:13:46.806Z,8.53
2023-04-19T10:16:19.346Z,5.60
2023-04-19T10:18:50.006Z,5.63
2023-04-19T10:21:17.234Z,5.53
2023-04-19T10:23:43.810Z,6.80
2023-04-19T10:26:10.335Z,4.87
2023-04-19T10:28:37.967Z,4.67
2023-04-19T10:31:05.405Z,5.20
2023-04-19T10:33:36.466Z,4.73
2023-04-19T10:36:03.884Z,5.30
2023-04-19T10:38:43.203Z,5.73
2023-04-19T10:41:16.935Z,5.10
2023-04-19T10:43:48.129Z,4.20
2023-04-19T10:46:16.465Z,3.90
2023-04-19T10:48:58.037Z,3.70
2023-04-19T10:51:29.695Z,4.10
2023-04-19T10:54:00.165Z,4.37
2023-04-19T10:56:32.728Z,4.23
2023-04-19T10:59:02.557Z,6.90
2023-04-19T11:01:40.849Z,3.33
2023-04-19T11:04:08.909Z,3.53
2023-04-19T11:06:37.142Z,3.27
2023-04-19T11:09:05.670Z,4.07
2023-04-19T11:11:36.378Z,3.70
2023-04-19T11:14:08.540Z,4.53
2023-04-19T11:16:45.405Z,4.67
2023-04-19T11:19:16.680Z,4.30
2023-04-19T11:21:46.585Z,3.70
2023-04-19T11:24:13.354Z,3.60
2023-04-19T11:26:43.347Z,4.43
2023-04-19T11:29:10.375Z,3.30
2023-04-19T11:31:36.953Z,4.30
2023-04-19T11:34:03.669Z,4.90
2023-04-19T11:36:32.254Z,6.90
2023-04-19T11:38:58.722Z,7.60
2023-04-19T11:41:25.220Z,3.30
2023-04-19T11:43:52.052Z,3.70
2023-04-19T11:46:18.602Z,4.50
2023-04-19T11:48:53.183Z,3.20
2023-04-19T11:51:20.342Z,2.77
2023-04-19T11:53:47.160Z,5.73
2023-04-19T11:56:15.590Z,3.87
2023-04-19T11:58:49.827Z,3.83
2023-04-19T12:01:20.359Z,3.90
2023-04-19T12:03:48.414Z,2.93
2023-04-19T12:06:19.295Z,5.23
2023-04-19T12:08:47.745Z,3.17
2023-04-19T12:11:15.368Z,3.90
2023-04-19T12:13:44.209Z,2.73
2023-04-19T12:16:11.933Z,2.40
2023-04-19T12:18:50.299Z,3.23
2023-04-19T12:21:32.409Z,2.90
2023-04-19T12:24:00.925Z,2.87
2023-04-19T12:26:28.924Z,2.60
2023-04-19T12:28:56.793Z,2.23
2023-04-19T12:31:23.297Z,1.90
2023-04-19T12:33:50.614Z,2.97
2023-04-19T12:36:17.114Z,2.03
2023-04-19T12:38:44.016Z,1.90
2023-04-19T12:41:11.069Z,2.27
2023-04-19T12:43:37.599Z,2.20
2023-04-19T12:46:05.201Z,1.63
2023-04-19T12:48:31.744Z,1.50
2023-04-19T12:50:58.178Z,3.10
2023-04-19T12:53:25.259Z,2.13
2023-04-19T12:55:51.690Z,1.77
2023-04-19T12:58:18.704Z,2.30
2023-04-19T13:00:45.403Z,2.17
2023-04-19T13:03:12.703Z,1.83
2023-04-19T13:05:39.268Z,4.47
2023-04-19T13:08:06.105Z,2.10
2023-04-19T13:10:32.617Z,3.20
2023-04-19T13:13:00.687Z,2.07
2023-04-19T13:15:28.601Z,2.40
2023-04-19T13:17:55.288Z,2.30
2023-04-19T13:20:21.785Z,3.23
2023-04-19T13:22:48.219Z,2.57
2023-04-19T13:25:14.684Z,1.90
2023-04-19T13:27:41.110Z,2.47
2023-04-19T13:30:08.307Z,2.43
2023-04-19T13:32:34.731Z,2.50
2023-04-19T13:35:01.178Z,3.63
2023-04-19T13:37:27.636Z,4.17
2023-04-19T13:40:01.117Z,2.77
2023-04-19T13:42:33.689Z,2.07
2023-04-19T13:45:00.118Z,2.67
2023-04-19T13:47:26.765Z,3.27
2023-04-19T13:49:53.239Z,2.13
2023-04-19T13:52:19.943Z,2.17
2023-04-19T13:54:46.465Z,2.00
2023-04-19T13:57:12.896Z,2.03
2023-04-19T13:59:39.265Z,1.93
2023-04-19T14:02:05.803Z,2.70
2023-04-19T14:04:33.113Z,1.70
2023-04-19T14:06:59.549Z,1.80
2023-04-19T14:09:26.043Z,2.90
2023-04-19T14:11:52.485Z,3.13
2023-04-19T14:14:19.014Z,3.13
2023-04-19T14:16:45.802Z,2.10
2023-04-19T14:19:12.303Z,2.83
2023-04-19T14:21:38.812Z,2.67
2023-04-19T14:24:05.873Z,3.20
2023-04-19T14:26:32.271Z,2.10
2023-04-19T14:28:58.723Z,1.80
2023-04-19T14:31:25.211Z,2.23
2023-04-19T14:33:52.126Z,2.23
2023-04-19T14:36:18.489Z,2.50
2023-04-19T14:38:44.899Z,2.17
2023-04-19T14:41:11.290Z,2.00
2023-04-19T14:43:37.668Z,2.03
2023-04-19T14:46:04.134Z,2.97
2023-04-19T14:48:30.686Z,1.73
2023-04-19T14:50:57.090Z,3.20
2023-04-19T14:53:23.707Z,2.90
2023-04-19T14:55:50.103Z,2.07
2023-04-19T14:58:16.538Z,2.57
2023-04-19T15:00:44.413Z,2.67
2023-04-19T15:03:10.989Z,2.07
2023-04-19T15:05:37.747Z,5.43
2023-04-19T15:08:04.440Z,2.63
2023-04-19T15:10:30.970Z,2.33
2023-04-19T15:12:58.039Z,3.57
2023-04-19T15:15:24.473Z,3.13
2023-04-19T15:17:51.217Z,2.43
2023-04-19T15:20:17.727Z,2.70
2023-04-19T15:22:44.134Z,3.83
2023-04-19T15:25:10.676Z,3.30
2023-04-19T15:27:37.269Z,2.97
2023-04-19T15:30:04.790Z,2.70
2023-04-19T15:32:34.207Z,3.70
2023-04-19T15:35:00.739Z,4.10
2023-04-19T15:37:27.528Z,4.30
2023-04-19T15:39:53.965Z,3.33
2023-04-19T15:42:20.337Z,2.40
2023-04-19T15:44:46.752Z,2.53
2023-04-19T15:47:13.218Z,3.60
2023-04-19T15:49:40.673Z,3.90
2023-04-19T15:52:08.685Z,2.93
2023-04-19T15:54:37.631Z,2.80
2023-04-19T15:57:04.061Z,3.50
2023-04-19T15:59:31.523Z,3.40
2023-04-19T16:01:58.191Z,4.43
2023-04-19T16:04:24.848Z,3.00
2023-04-19T16:06:51.821Z,3.07
2023-04-19T16:09:19.342Z,3.40
2023-04-19T16:11:45.870Z,5.13
2023-04-19T16:14:12.313Z,4.33
2023-04-19T16:16:38.727Z,3.40
2023-04-19T16:19:05.190Z,3.60
2023-04-19T16:21:31.827Z,3.63
2023-04-19T16:23:58.489Z,3.70
2023-04-19T16:26:24.923Z,3.20
2023-04-19T16:28:51.407Z,3.93
2023-04-19T16:31:18.168Z,4.40
2023-04-19T16:33:44.779Z,3.27
2023-04-19T16:36:11.307Z,3.07
2023-04-19T16:38:37.737Z,2.60
2023-04-19T16:41:05.831Z,3.40
2023-04-19T16:43:32.583Z,2.50
2023-04-19T16:45:59.061Z,3.63
2023-04-19T16:48:26.192Z,3.03
2023-04-19T16:50:52.605Z,4.87
2023-04-19T16:53:19.693Z,3.00
2023-04-19T16:55:46.188Z,3.90
2023-04-19T16:58:12.558Z,5.77
2023-04-19T17:00:38.975Z,2.93
2023-04-19T17:03:06.006Z,5.20
2023-04-19T17:05:32.477Z,3.13
2023-04-19T17:07:58.869Z,3.13
2023-04-19T17:10:26.938Z,3.37
2023-04-19T17:12:55.749Z,6.47
2023-04-19T17:15:22.286Z,4.30
2023-04-19T17:17:48.739Z,4.27
2023-04-19T17:20:15.378Z,3.23
2023-04-19T17:22:41.818Z,3.90
2023-04-19T17:25:08.566Z,4.33
2023-04-19T17:27:34.978Z,3.13
2023-04-19T17:30:01.439Z,5.10
2023-04-19T17:32:27.882Z,3.13
2023-04-19T17:34:54.357Z,4.77
2023-04-19T17:37:20.931Z,3.43
2023-04-19T17:39:47.340Z,3.23
2023-04-19T17:42:13.853Z,3.27
2023-04-19T17:44:40.313Z,3.40
2023-04-19T17:47:06.858Z,2.90
2023-04-19T17:49:33.276Z,3.23
2023-04-19T17:51:59.645Z,4.00
2023-04-19T17:54:26.085Z,4.27
2023-04-19T17:56:52.829Z,3.40
2023-04-19T17:59:19.492Z,2.80
2023-04-19T18:01:46.097Z,2.87
2023-04-19T18:04:17.195Z,3.63
2023-04-19T18:06:43.870Z,5.80
2023-04-19T18:09:10.354Z,4.60
2023-04-19T18:11:36.792Z,3.73
2023-04-19T18:14:03.182Z,3.80
2023-04-19T18:16:29.619Z,3.07
2023-04-19T18:18:56.298Z,2.50
2023-04-19T18:21:22.764Z,4.40
2023-04-19T18:23:49.144Z,2.40
2023-04-19T18:26:15.566Z,3.90
2023-04-19T18:28:41.980Z,5.80
2023-04-19T18:31:09.549Z,3.30
2023-04-19T18:33:36.485Z,3.83
2023-04-19T18:36:04.670Z,3.33
2023-04-19T18:38:31.500Z,4.00
2023-04-19T18:40:58.764Z,2.77
2023-04-19T18:43:26.148Z,4.50
2023-04-19T18:45:54.669Z,5.33
2023-04-19T18:48:22.448Z,4.50
2023-04-19T18:50:48.919Z,2.70
2023-04-19T18:53:15.336Z,3.60
2023-04-19T18:55:42.014Z,5.10
2023-04-19T18:58:08.868Z,4.03
2023-04-19T19:00:35.302Z,3.37
2023-04-19T19:03:03.401Z,2.83
2023-04-19T19:05:30.713Z,3.77
2023-04-19T19:07:57.553Z,4.03
2023-04-19T19:12:52.981Z,4.80
2023-04-19T19:15:19.579Z,10.87
2023-04-19T19:17:49.303Z,5.20
2023-04-19T19:20:16.776Z,4.90
2023-04-19T19:22:43.408Z,3.30
2023-04-19T19:25:11.767Z,2.53
2023-04-19T19:27:38.803Z,2.70
2023-04-19T19:30:07.944Z,3.33
2023-04-19T19:32:34.746Z,3.43
2023-04-19T19:35:06.216Z,3.80
2023-04-19T19:37:35.330Z,2.83
2023-04-19T19:40:05.139Z,4.27
2023-04-19T19:42:33.819Z,6.03
2023-04-19T19:45:00.495Z,6.47
2023-04-19T19:47:31.476Z,11.30
2023-04-19T19:52:28.358Z,4.30
2023-04-19T19:54:54.803Z,4.00
2023-04-19T19:58:14.300Z,4.30
2023-04-19T20:00:28.120Z,5.27
2023-04-19T20:02:58.861Z,4.53
2023-04-19T20:05:26.342Z,4.37
2023-04-19T20:08:05.699Z,4.10
2023-04-19T20:10:32.498Z,4.27
2023-04-19T20:12:58.950Z,7.80
2023-04-19T20:15:25.659Z,4.20
2023-04-19T20:17:52.209Z,6.20
2023-04-19T20:20:18.670Z,3.53
2023-04-19T20:22:45.372Z,2.50
2023-04-19T20:25:13.158Z,3.10
2023-04-19T20:27:39.681Z,3.53
2023-04-19T20:30:09.203Z,3.73
2023-04-19T20:32:42.050Z,5.80
2023-04-19T20:35:12.022Z,3.53
2023-04-19T20:37:42.690Z,4.53
2023-04-19T20:40:12.189Z,4.00
2023-04-19T20:42:38.779Z,3.23
2023-04-19T20:45:10.449Z,3.47
2023-04-19T20:47:38.327Z,5.60
2023-04-19T20:50:06.966Z,3.37
2023-04-19T20:52:34.144Z,4.97
2023-04-19T20:55:00.975Z,4.20
2023-04-19T20:57:27.549Z,3.77
2023-04-19T20:59:53.990Z,4.33
2023-04-19T21:02:20.458Z,4.80
2023-04-19T21:04:47.120Z,3.10
2023-04-19T21:07:13.679Z,3.20
2023-04-19T21:09:41.422Z,4.20
2023-04-19T21:12:07.875Z,4.13
2023-04-19T21:14:34.292Z,3.17
2023-04-19T21:17:02.104Z,3.97
2023-04-19T21:19:28.936Z,2.50
2023-04-19T21:21:55.747Z,2.50
2023-04-19T21:24:22.308Z,3.60
2023-04-19T21:26:48.824Z,3.17
2023-04-19T21:29:15.787Z,3.97
2023-04-19T21:31:42.564Z,3.30
2023-04-19T21:34:09.044Z,4.57
2023-04-19T21:36:35.485Z,3.97
2023-04-19T21:39:01.875Z,2.47
2023-04-19T21:41:28.270Z,4.30
2023-04-19T21:43:54.698Z,2.27
2023-04-19T21:46:21.301Z,2.67
2023-04-19T21:48:47.776Z,2.77
2023-04-19T21:51:14.279Z,2.90
2023-04-19T21:53:40.727Z,4.23
2023-04-19T21:56:07.359Z,3.60
2023-04-19T21:58:33.734Z,3.83
2023-04-19T22:01:00.212Z,3.20
2023-04-19T22:03:27.001Z,3.70
2023-04-19T22:05:53.517Z,4.30
2023-04-19T22:08:21.895Z,3.70
2023-04-19T22:10:50.452Z,3.07
2023-04-19T22:13:17.601Z,7.63
2023-04-19T22:15:44.075Z,3.00
2023-04-19T22:18:10.491Z,3.87
2023-04-19T22:20:38.377Z,3.90
2023-04-19T22:23:04.947Z,3.70
2023-04-19T22:25:31.362Z,3.33
2023-04-19T22:27:57.874Z,3.80
2023-04-19T22:30:24.449Z,3.30
2023-04-19T22:32:51.133Z,4.33
2023-04-19T22:35:17.646Z,4.07
2023-04-19T22:37:44.089Z,5.40
2023-04-19T22:40:11.050Z,4.30
2023-04-19T22:42:37.474Z,4.10
2023-04-19T22:45:04.330Z,2.80
2023-04-19T22:47:32.264Z,4.87
2023-04-19T22:49:58.860Z,5.30
2023-04-19T22:52:25.791Z,4.20
2023-04-19T22:54:52.268Z,3.03
2023-04-19T22:57:18.669Z,3.30
2023-04-19T22:59:45.020Z,4.63
2023-04-19T23:02:11.624Z,3.70
2023-04-19T23:04:38.209Z,2.70
2023-04-19T23:07:04.857Z,4.13
2023-04-19T23:09:31.290Z,3.80
2023-04-19T23:12:00.785Z,3.40
2023-04-19T23:14:28.349Z,5.23
2023-04-19T23:16:55.011Z,3.80
2023-04-19T23:19:22.780Z,3.37
2023-04-19T23:21:50.418Z,2.33
2023-04-19T23:24:17.570Z,9.80
2023-04-19T23:26:44.066Z,3.30
2023-04-19T23:29:10.532Z,4.73
2023-04-19T23:31:37.079Z,2.83
2023-04-19T23:34:03.582Z,4.60
2023-04-19T23:36:30.069Z,3.30
2023-04-19T23:38:56.545Z,3.30
2023-04-19T23:41:22.987Z,3.90
2023-04-19T23:43:49.400Z,8.13
2023-04-19T23:46:15.904Z,4.80
2023-04-19T23:48:42.464Z,22.97
2023-04-19T23:51:08.866Z,25.87
2023-04-19T23:53:35.289Z,16.83
2023-04-19T23:56:01.759Z,11.30
2023-04-19T23:58:28.163Z,4.40
